Time;durP1;ratioP1;P1;durP2;ratioP2;P2;SDS_P1;SDS_P2;PMS_P1;PMS_P2;Temp;Humidity;BMP_temperature;BMP_pressure;BME280_temperature;BME280_humidity;BME280_pressure;Samples;Min_cycle;Max_cycle;Signal;HPM_P1;HPM_P2
2023/01/07 00:01:27;;;;;;;;;6.25;6.25;;;;;12.27;67.42;100949.38;5028327;28;45349;-84
2023/01/07 00:03:53;;;;;;;;;10.75;10.75;;;;;12.22;67.14;100930.25;5030476;28;45337;-83
2023/01/07 00:06:28;;;;;;;;;9.00;9.00;;;;;12.29;67.25;100939.59;5025208;28;45274;-83
2023/01/07 00:08:55;;;;;;;;;7.25;7.25;;;;;12.26;67.23;100927.41;5021961;28;45506;-82
2023/01/07 00:11:29;;;;;;;;;13.50;13.50;;;;;12.26;67.20;100935.34;5027446;28;46089;-77
2023/01/07 00:13:56;;;;;;;;;8.25;8.25;;;;;12.23;67.07;100924.91;5046656;28;45350;-85
2023/01/07 00:16:24;;;;;;;;;7.75;7.75;;;;;12.20;66.96;100929.44;5041398;28;45359;-83
2023/01/07 00:18:51;;;;;;;;;9.25;9.25;;;;;12.17;67.04;100919.03;5023090;28;45423;-82
2023/01/07 00:21:18;;;;;;;;;6.00;6.00;;;;;12.19;67.01;100912.75;5038060;28;45337;-82
2023/01/07 00:23:44;;;;;;;;;7.00;6.25;;;;;12.19;66.92;100910.09;5039338;28;45516;-82
2023/01/07 00:26:15;;;;;;;;;5.75;5.75;;;;;12.20;66.78;100903.06;5042217;28;45307;-85
2023/01/07 00:28:43;;;;;;;;;6.25;6.25;;;;;12.20;66.64;100892.53;5042595;28;45403;-78
2023/01/07 00:31:29;;;;;;;;;4.50;4.50;;;;;12.19;66.79;100889.00;5039123;28;45353;-80
2023/01/07 00:36:26;;;;;;;;;6.00;6.00;;;;;12.12;66.57;100877.88;5040262;28;45342;-84
2023/01/07 00:39:00;;;;;;;;;5.75;5.75;;;;;12.12;66.57;100863.81;5033371;28;45392;-77
2023/01/07 00:41:26;;;;;;;;;4.50;4.50;;;;;12.06;66.39;100856.16;5021995;28;45753;-82
2023/01/07 00:43:52;;;;;;;;;6.75;6.75;;;;;12.06;66.13;100856.16;5028542;28;45443;-79
2023/01/07 00:46:18;;;;;;;;;5.75;5.75;;;;;12.05;66.69;100855.34;5039218;28;45442;-82
2023/01/07 00:48:43;;;;;;;;;4.75;4.75;;;;;12.07;66.21;100856.13;5040256;28;45651;-82
2023/01/07 00:51:11;;;;;;;;;4.25;4.25;;;;;12.04;66.71;100848.34;5041482;28;46253;-83
2023/01/07 00:53:36;;;;;;;;;6.50;6.50;;;;;12.06;66.67;100845.63;5041325;28;45340;-80
2023/01/07 00:56:01;;;;;;;;;7.00;7.00;;;;;12.07;66.36;100849.97;5039865;28;45410;-83
2023/01/07 00:58:27;;;;;;;;;7.00;7.00;;;;;12.08;66.53;100835.88;5047288;28;45540;-82
2023/01/07 01:00:57;;;;;;;;;4.75;4.75;;;;;12.07;66.24;100836.78;5040133;28;45405;-78
2023/01/07 01:03:23;;;;;;;;;4.25;4.25;;;;;12.06;66.38;100828.03;5038602;28;45266;-82
2023/01/07 01:05:49;;;;;;;;;8.25;8.25;;;;;12.06;66.58;100830.69;5022796;28;45379;-81
2023/01/07 01:08:16;;;;;;;;;5.00;5.00;;;;;12.06;66.41;100825.41;5040984;28;45350;-81
2023/01/07 01:10:42;;;;;;;;;5.00;5.00;;;;;12.03;66.41;100822.91;5044269;28;46410;-81
2023/01/07 01:13:13;;;;;;;;;5.00;5.00;;;;;12.03;66.43;100820.25;5023472;28;45391;-76
2023/01/07 01:15:43;;;;;;;;;4.75;4.75;;;;;12.01;66.23;100822.09;5019735;28;45215;-83
2023/01/07 01:18:09;;;;;;;;;3.25;3.25;;;;;11.95;66.55;100803.88;5003218;28;45360;-80
2023/01/07 01:20:35;;;;;;;;;6.00;5.00;;;;;11.98;66.70;100809.88;5019215;28;45462;-83
2023/01/07 01:23:00;;;;;;;;;5.75;5.75;;;;;11.99;66.49;100808.94;5003021;28;45384;-81
2023/01/07 01:25:25;;;;;;;;;5.00;5.00;;;;;11.95;66.46;100799.44;5023717;28;45217;-85
2023/01/07 01:27:51;;;;;;;;;7.00;7.00;;;;;11.97;66.09;100805.50;5018702;28;45612;-83
2023/01/07 01:30:16;;;;;;;;;5.75;5.75;;;;;11.96;66.74;100802.97;5019491;28;46816;-82
2023/01/07 01:32:41;;;;;;;;;8.50;8.50;;;;;11.96;66.67;100805.59;5034928;28;45222;-79
2023/01/07 01:35:07;;;;;;;;;6.75;6.75;;;;;11.95;66.58;100798.59;5039017;28;45165;-83
2023/01/07 01:37:32;;;;;;;;;10.75;10.75;;;;;11.90;66.59;100792.69;5039490;28;45437;-82
2023/01/07 01:39:57;;;;;;;;;8.00;8.00;;;;;11.95;66.72;100799.44;5039117;28;46828;-78
2023/01/07 01:42:24;;;;;;;;;7.00;7.00;;;;;11.83;66.27;100770.97;5039417;28;53265;-81
2023/01/07 01:44:51;;;;;;;;;6.75;6.75;;;;;11.95;67.12;100795.97;5043959;28;45348;-81
2023/01/07 01:47:22;;;;;;;;;5.50;5.50;;;;;11.95;66.56;100788.06;5049308;28;45448;-76
2023/01/07 01:50:03;;;;;;;;;9.00;9.00;;;;;11.96;66.52;100784.50;5048554;28;45144;-82
2023/01/07 01:52:41;;;;;;;;;7.00;7.00;;;;;11.97;66.88;100788.84;5044428;28;45414;-82
2023/01/07 01:55:09;;;;;;;;;4.00;4.00;;;;;11.90;66.24;100771.59;5049291;28;45321;-83
2023/01/07 01:57:37;;;;;;;;;5.00;5.00;;;;;11.93;66.60;100779.38;5048328;28;45391;-80
2023/01/07 02:00:04;;;;;;;;;7.50;7.50;;;;;11.90;66.20;100774.22;5039625;28;46458;-80
2023/01/07 02:02:33;;;;;;;;;4.00;4.00;;;;;11.87;66.26;100763.81;5008009;28;45351;-80
2023/01/07 02:05:00;;;;;;;;;3.75;3.75;;;;;11.82;66.83;100751.69;5018508;28;45280;-81
2023/01/07 02:07:25;;;;;;;;;4.00;4.00;;;;;11.89;66.72;100761.97;5020975;28;45571;-75
2023/01/07 02:10:00;;;;;;;;;4.25;4.25;;;;;11.86;66.61;100760.31;5019328;28;48126;-82
2023/01/07 02:12:40;;;;;;;;;6.50;6.50;;;;;11.90;66.63;100766.31;5034873;28;45365;-81
2023/01/07 02:15:12;;;;;;;;;5.25;5.25;;;;;11.89;67.01;100761.97;5037872;28;45297;-82
2023/01/07 02:18:00;;;;;;;;;5.00;5.00;;;;;11.89;66.89;100754.06;5038069;28;45379;-81
2023/01/07 02:20:49;;;;;;;;;4.25;4.25;;;;;11.89;66.71;100754.91;5019480;28;47257;-78
2023/01/07 02:23:51;;;;;;;;;8.00;8.00;;;;;11.89;66.90;100752.25;5018729;28;45274;-83
2023/01/07 02:26:41;;;;;;;;;6.00;6.00;;;;;11.89;67.24;100752.25;5018374;28;45329;-80
2023/01/07 02:29:31;;;;;;;;;4.00;4.00;;;;;11.89;67.08;100752.25;5017904;28;45452;-83
2023/01/07 02:32:08;;;;;;;;;4.00;4.00;;;;;11.89;67.04;100740.88;5022894;28;46206;-80
2023/01/07 02:35:04;;;;;;;;;5.00;5.00;;;;;11.89;66.91;100735.59;5031363;28;45653;-74
2023/01/07 02:37:46;;;;;;;;;4.25;4.25;;;;;11.89;67.35;100744.34;5028172;28;45227;-81
2023/01/07 02:40:16;;;;;;;;;5.00;5.00;;;;;11.86;67.30;100735.75;5018567;28;45354;-77
2023/01/07 02:43:11;;;;;;;;;6.00;6.00;;;;;11.80;67.31;100728.94;5036123;28;46466;-79
2023/01/07 02:46:06;;;;;;;;;3.75;3.75;;;;;11.82;66.99;100732.38;5037487;28;45238;-78
2023/01/07 02:48:34;;;;;;;;;5.00;5.00;;;;;11.82;67.51;100732.38;5040578;28;45431;-78
2023/01/07 02:50:59;;;;;;;;;4.25;4.25;;;;;11.83;67.33;100727.03;5037507;28;45330;-80
2023/01/07 02:53:24;;;;;;;;;6.00;6.00;;;;;11.79;66.94;100717.56;5036605;28;46077;-81
2023/01/07 02:56:21;;;;;;;;;3.00;3.00;;;;;11.82;67.37;100727.09;5037622;28;45352;-80
2023/01/07 02:59:16;;;;;;;;;4.50;4.50;;;;;11.80;67.37;100713.13;5037989;28;45332;-78
2023/01/07 03:01:56;;;;;;;;;5.00;5.00;;;;;11.80;67.44;100719.28;5030548;28;45183;-74
2023/01/07 03:04:49;;;;;;;;;5.50;5.50;;;;;11.77;67.21;100706.22;5017468;28;46152;-76
2023/01/07 03:07:44;;;;;;;;;5.00;5.00;;;;;11.80;66.94;100697.31;4989179;28;45304;-83
2023/01/07 03:10:20;;;;;;;;;6.25;6.25;;;;;11.81;66.96;100699.91;5018329;28;45395;-82
2023/01/07 03:13:01;;;;;;;;;3.00;3.00;;;;;11.80;66.70;100692.03;5018440;28;45481;-81
2023/01/07 03:15:42;;;;;;;;;4.00;4.00;;;;;11.81;66.22;100689.34;5037963;28;45345;-80
2023/01/07 03:18:14;;;;;;;;;3.50;3.50;;;;;11.79;66.50;100683.28;5043818;28;45355;-79
2023/01/07 03:20:42;;;;;;;;;3.00;3.00;;;;;11.76;66.50;100678.16;5040816;28;45402;-81
2023/01/07 03:23:11;;;;;;;;;3.75;3.75;;;;;11.76;66.32;100677.28;5022006;28;45321;-83
2023/01/07 03:25:42;;;;;;;;;3.75;3.75;;;;;11.77;66.40;100671.97;5040911;28;46318;-79
2023/01/07 03:28:10;;;;;;;;;3.00;3.00;;;;;11.78;65.90;100663.13;5040316;28;45422;-78
2023/01/07 03:30:37;;;;;;;;;3.00;3.00;;;;;11.74;65.79;100648.38;5016873;28;45400;-76
2023/01/07 03:33:27;;;;;;;;;2.75;2.75;;;;;11.82;65.62;100659.44;5019587;28;45277;-77
2023/01/07 03:35:56;;;;;;;;;2.00;2.00;;;;;11.81;65.80;100654.22;5022544;28;46269;-79
2023/01/07 03:38:23;;;;;;;;;3.00;3.00;;;;;11.84;65.43;100656.72;5019372;28;45187;-77
2023/01/07 03:40:50;;;;;;;;;3.50;3.50;;;;;11.87;65.37;100653.13;5028393;28;45473;-77
2023/01/07 03:43:21;;;;;;;;;2.50;2.50;;;;;11.83;65.50;100640.06;5019208;28;45492;-77
2023/01/07 03:45:49;;;;;;;;;2.00;2.00;;;;;11.87;65.54;100645.19;5001392;28;48404;-77
2023/01/07 03:48:14;;;;;;;;;3.00;3.00;;;;;11.83;65.18;100632.16;5019216;28;45373;-75
2023/01/07 03:50:39;;;;;;;;;4.00;4.00;;;;;11.86;65.15;100625.03;5022157;28;45332;-76
2023/01/07 03:53:05;;;;;;;;;3.25;3.25;;;;;11.86;65.08;100625.03;5021373;28;45502;-75
2023/01/07 03:55:30;;;;;;;;;8.50;8.50;;;;;11.87;65.23;100624.97;5039365;28;46214;-76
2023/01/07 03:57:56;;;;;;;;;2.00;2.00;;;;;11.88;64.88;100624.03;5038671;28;53274;-77
2023/01/07 04:00:22;;;;;;;;;3.00;3.00;;;;;11.83;65.03;100613.72;5037186;28;45654;-76
2023/01/07 04:02:47;;;;;;;;;2.50;2.50;;;;;11.88;65.06;100623.19;5039678;28;45490;-78
2023/01/07 04:05:12;;;;;;;;;2.50;2.50;;;;;11.88;65.44;100612.66;5038195;28;46324;-76
2023/01/07 04:07:38;;;;;;;;;2.00;2.00;;;;;11.87;65.35;100595.97;5039844;28;45297;-77
2023/01/07 04:10:05;;;;;;;;;2.25;2.25;;;;;11.90;65.31;100603.72;5037627;28;45359;-76
2023/01/07 04:12:30;;;;;;;;;2.00;2.00;;;;;11.88;64.81;100600.31;5039403;28;45560;-77
2023/01/07 04:14:56;;;;;;;;;2.00;2.00;;;;;11.86;65.19;100585.50;5020246;28;46225;-78
2023/01/07 04:17:21;;;;;;;;;2.00;2.00;;;;;11.89;65.34;100588.00;5038586;28;45261;-77
2023/01/07 04:19:47;;;;;;;;;4.00;4.00;;;;;11.79;65.13;100564.72;5037107;28;45278;-75
2023/01/07 04:22:12;;;;;;;;;4.00;4.00;;;;;11.88;64.95;100579.22;5036777;28;45277;-77
2023/01/07 04:24:37;;;;;;;;;2.00;2.00;;;;;11.88;65.25;100573.13;5037131;28;46467;-75
2023/01/07 04:27:03;;;;;;;;;3.00;3.00;;;;;11.88;64.66;100562.56;5036657;28;62921;-73
2023/01/07 04:29:29;;;;;;;;;4.75;4.75;;;;;11.83;64.92;100555.72;5033602;28;45306;-77
2023/01/07 04:31:54;;;;;;;;;5.00;5.00;;;;;11.80;64.98;100541.81;5035336;28;45399;-77
2023/01/07 04:34:20;;;;;;;;;4.00;4.00;;;;;11.88;64.82;100549.41;5037200;28;46193;-74
2023/01/07 04:36:45;;;;;;;;;2.75;2.75;;;;;11.80;65.31;100531.28;5037222;28;45680;-77
2023/01/07 04:39:11;;;;;;;;;4.75;4.00;;;;;11.67;65.01;100518.69;5035099;28;45767;-76
2023/01/07 04:41:37;;;;;;;;;4.25;4.25;;;;;11.72;65.19;100533.41;5037445;28;45673;-72
2023/01/07 04:44:02;;;;;;;;;3.50;3.50;;;;;11.65;65.12;100522.28;5023568;28;45434;-75
2023/01/07 04:46:27;;;;;;;;;4.25;4.25;;;;;11.62;65.16;100514.53;5017126;28;45491;-77
2023/01/07 04:48:53;;;;;;;;;3.00;3.00;;;;;11.56;65.72;100513.03;5023714;28;45265;-77
2023/01/07 04:51:19;;;;;;;;;4.00;4.00;;;;;11.42;65.83;100489.13;5037325;28;45540;-79
2023/01/07 04:53:45;;;;;;;;;3.00;3.00;;;;;11.37;65.80;100494.56;5018365;28;46028;-78
2023/01/07 04:56:10;;;;;;;;;2.00;2.00;;;;;11.33;65.70;100490.38;5036823;28;45325;-78
2023/01/07 04:58:36;;;;;;;;;4.00;4.00;;;;;11.31;66.31;100492.22;5036016;28;45388;-74
2023/01/07 05:01:05;;;;;;;;;4.00;4.00;;;;;11.23;66.15;100482.88;5037498;28;45225;-76
2023/01/07 05:03:33;;;;;;;;;2.00;2.00;;;;;11.21;66.78;100476.84;5018995;28;47652;-76
2023/01/07 05:05:59;;;;;;;;;3.00;3.00;;;;;11.15;67.00;100469.22;5036170;28;45394;-76
2023/01/07 05:08:24;;;;;;;;;3.75;3.75;;;;;11.12;66.87;100466.72;5034859;28;45626;-75
2023/01/07 05:10:50;;;;;;;;;7.25;7.25;;;;;11.06;67.07;100466.97;5037246;28;45395;-76
2023/01/07 05:13:17;;;;;;;;;3.00;3.00;;;;;10.99;67.18;100461.13;5036625;28;46393;-76
2023/01/07 05:15:42;;;;;;;;;4.50;4.50;;;;;10.95;67.73;100451.66;5025601;28;45360;-77
2023/01/07 05:18:08;;;;;;;;;3.50;3.50;;;;;10.88;67.37;100445.81;5017187;28;45246;-76
2023/01/07 05:20:33;;;;;;;;;4.50;4.50;;;;;10.73;67.80;100426.28;5037158;28;45721;-75
2023/01/07 05:22:58;;;;;;;;;5.00;5.00;;;;;10.79;68.33;100444.44;5036648;28;46077;-74
2023/01/07 05:25:24;;;;;;;;;4.50;4.50;;;;;10.74;68.27;100445.56;5019716;28;45317;-76
2023/01/07 05:27:49;;;;;;;;;5.00;5.00;;;;;10.71;68.44;100449.16;5016694;28;45240;-77
2023/01/07 05:30:14;;;;;;;;;7.00;7.00;;;;;10.63;68.98;100436.34;5034493;28;45511;-75
2023/01/07 05:32:40;;;;;;;;;4.00;4.00;;;;;10.62;68.87;100442.53;5036084;28;45531;-75
2023/01/07 05:35:05;;;;;;;;;5.00;5.00;;;;;10.59;68.97;100441.81;5036876;28;45264;-74
2023/01/07 05:37:31;;;;;;;;;3.75;3.75;;;;;10.55;69.62;100429.69;5039433;28;45465;-75
2023/01/07 05:39:56;;;;;;;;;5.25;5.25;;;;;10.51;69.46;100427.19;5035638;28;45531;-75
2023/01/07 05:42:21;;;;;;;;;6.00;6.00;;;;;10.48;70.01;100427.34;5036446;28;46125;-77
2023/01/07 05:44:47;;;;;;;;;5.50;5.50;;;;;10.44;69.98;100428.38;5033186;28;51680;-77
2023/01/07 05:47:12;;;;;;;;;6.00;6.00;;;;;10.38;69.86;100436.50;5018709;28;45506;-77
2023/01/07 05:49:37;;;;;;;;;6.75;6.75;;;;;10.32;70.01;100416.56;5036393;28;45919;-77
2023/01/07 05:52:03;;;;;;;;;6.00;6.00;;;;;10.31;70.42;100425.38;5036312;28;46390;-77
2023/01/07 05:54:28;;;;;;;;;5.00;5.00;;;;;10.28;70.72;100422.03;5033904;28;45349;-76
2023/01/07 05:56:53;;;;;;;;;5.50;5.50;;;;;10.23;70.83;100428.34;5016488;28;45320;-73
2023/01/07 05:59:19;;;;;;;;;6.75;6.75;;;;;10.20;70.71;100427.59;5015463;28;47240;-74
2023/01/07 06:01:44;;;;;;;;;7.75;7.75;;;;;10.13;71.29;100423.50;5017207;28;46637;-76
2023/01/07 06:04:09;;;;;;;;;6.00;6.00;;;;;10.15;71.72;100426.91;5018824;28;45297;-76
2023/01/07 06:06:35;;;;;;;;;6.50;6.50;;;;;10.10;71.39;100424.50;5036621;28;45343;-76
2023/01/07 06:09:00;;;;;;;;;6.00;6.00;;;;;10.04;71.13;100414.19;5035049;28;45640;-77
2023/01/07 06:11:25;;;;;;;;;6.75;6.75;;;;;10.03;71.72;100423.88;5036159;28;46029;-75
2023/01/07 06:13:51;;;;;;;;;5.00;5.00;;;;;10.01;71.28;100419.59;5033452;28;54809;-77
2023/01/07 06:16:16;;;;;;;;;8.00;8.00;;;;;9.89;71.47;100419.16;5017176;28;45334;-75
2023/01/07 06:18:41;;;;;;;;;6.25;6.25;;;;;9.92;71.72;100418.19;5015245;28;45495;-77
2023/01/07 06:21:07;;;;;;;;;5.50;5.50;;;;;9.89;71.57;100415.69;4997234;28;47009;-77
2023/01/07 06:23:32;;;;;;;;;5.25;5.25;;;;;9.85;71.62;100425.47;5015650;28;45170;-73
2023/01/07 06:25:58;;;;;;;;;6.25;6.25;;;;;9.81;71.67;100426.50;5019962;28;45175;-75
2023/01/07 06:28:23;;;;;;;;;4.50;4.50;;;;;9.81;71.81;100426.50;5034782;28;45476;-76
2023/01/07 06:30:48;;;;;;;;;6.75;6.75;;;;;9.81;72.00;100425.66;5018124;28;50243;-75
2023/01/07 06:33:15;;;;;;;;;8.25;8.25;;;;;9.68;72.18;100410.38;5028512;28;45502;-74
2023/01/07 06:35:40;;;;;;;;;7.75;7.00;;;;;9.68;72.27;100417.38;5022059;28;45415;-73
2023/01/07 06:38:06;;;;;;;;;9.25;9.25;;;;;9.72;72.51;100417.22;5020352;28;45523;-75
2023/01/07 06:40:31;;;;;;;;;9.50;9.50;;;;;9.70;72.28;100419.06;5038155;28;46418;-76
2023/01/07 06:42:56;;;;;;;;;8.50;8.50;;;;;9.69;72.10;100405.97;5037201;28;45496;-75
2023/01/07 06:45:23;;;;;;;;;9.75;9.75;;;;;9.62;72.12;100403.59;5033011;28;45388;-77
2023/01/07 06:47:48;;;;;;;;;28.75;28.75;;;;;9.63;72.34;100420.22;5032615;28;45561;-76
2023/01/07 06:50:14;;;;;;;;;8.50;8.50;;;;;9.62;72.43;100421.13;5034441;28;45360;-73
2023/01/07 06:52:39;;;;;;;;;6.00;6.00;;;;;9.61;72.45;100414.16;5035147;28;45329;-74
2023/01/07 06:55:04;;;;;;;;;7.00;7.00;;;;;9.53;72.94;100398.69;5020941;28;45416;-73
2023/01/07 06:57:30;;;;;;;;;11.25;11.25;;;;;9.48;72.60;100390.13;5038278;28;45281;-76
2023/01/07 06:59:55;;;;;;;;;7.75;7.75;;;;;9.48;72.62;100401.47;5021604;28;45316;-77
2023/01/07 07:02:23;;;;;;;;;8.25;8.25;;;;;9.50;72.43;100404.06;5021405;28;45337;-76
2023/01/07 07:04:49;;;;;;;;;9.75;9.25;;;;;9.46;72.67;100394.59;5021737;28;45323;-73
2023/01/07 07:07:15;;;;;;;;;9.25;9.25;;;;;9.44;72.55;100378.88;5010484;28;45538;-72
2023/01/07 07:09:40;;;;;;;;;10.75;9.00;;;;;9.41;72.72;100381.63;5024257;28;47977;-76
2023/01/07 07:12:06;;;;;;;;;9.00;9.00;;;;;9.39;72.46;100380.84;5043479;28;45339;-77
2023/01/07 07:14:32;;;;;;;;;9.25;9.25;;;;;9.39;72.93;100382.63;5021036;28;45384;-76
2023/01/07 07:16:57;;;;;;;;;7.50;7.50;;;;;9.38;72.73;100383.53;5041100;28;45449;-76
2023/01/07 07:19:23;;;;;;;;;8.25;8.25;;;;;9.38;71.99;100381.75;5023183;28;45972;-78
2023/01/07 07:21:48;;;;;;;;;6.25;6.25;;;;;9.35;72.64;100374.88;5023302;28;45461;-77
2023/01/07 07:24:13;;;;;;;;;6.25;6.25;;;;;9.29;72.91;100371.59;5040146;28;45561;-75
2023/01/07 07:26:39;;;;;;;;;10.25;10.25;;;;;9.18;72.57;100364.16;5023422;28;45375;-71
2023/01/07 07:29:04;;;;;;;;;8.25;8.25;;;;;9.21;72.78;100369.28;5041451;28;45476;-75
2023/01/07 07:31:29;;;;;;;;;9.50;9.00;;;;;9.25;72.76;100370.00;5042134;28;46679;-75
2023/01/07 07:33:55;;;;;;;;;8.50;8.50;;;;;9.22;73.08;100371.00;5041602;28;45368;-75
2023/01/07 07:36:20;;;;;;;;;9.00;9.00;;;;;9.21;72.96;100370.13;5040593;28;45514;-74
2023/01/07 07:38:45;;;;;;;;;8.50;8.50;;;;;9.20;72.92;100364.97;5040517;28;49502;-75
2023/01/07 07:41:11;;;;;;;;;10.00;10.00;;;;;9.23;72.85;100367.47;5041233;28;52302;-75
2023/01/07 07:43:36;;;;;;;;;7.50;7.50;;;;;9.23;73.17;100369.22;5042116;28;45250;-74
2023/01/07 07:46:02;;;;;;;;;8.75;8.75;;;;;9.20;72.74;100362.34;5024648;28;45194;-74
2023/01/07 07:48:27;;;;;;;;;9.25;9.25;;;;;9.19;72.67;100358.84;5022259;28;46514;-76
2023/01/07 07:50:52;;;;;;;;;7.50;7.50;;;;;9.08;72.79;100337.41;5003850;28;45360;-76
2023/01/07 07:53:18;;;;;;;;;11.50;11.50;;;;;9.17;73.19;100344.06;5020906;28;45469;-75
2023/01/07 07:55:45;;;;;;;;;9.75;9.75;;;;;9.08;73.19;100329.53;5029223;28;45316;-76
2023/01/07 07:58:10;;;;;;;;;7.50;7.50;;;;;9.14;72.98;100352.91;5042313;28;47119;-75
2023/01/07 08:00:35;;;;;;;;;5.50;5.50;;;;;9.15;73.11;100346.75;5040846;28;45304;-75
2023/01/07 08:03:01;;;;;;;;;8.00;8.00;;;;;9.14;72.97;100347.66;5023161;28;45483;-74
2023/01/07 08:05:27;;;;;;;;;8.00;8.00;;;;;9.11;72.84;100347.78;5040512;28;45538;-76
2023/01/07 08:07:52;;;;;;;;;7.75;7.75;;;;;9.10;72.99;100346.06;5014839;28;46265;-73
2023/01/07 08:10:19;;;;;;;;;8.75;8.75;;;;;9.11;72.99;100342.53;5019460;28;45574;-74
2023/01/07 08:12:45;;;;;;;;;7.75;7.75;;;;;9.12;72.95;100340.78;5005998;28;45423;-77
2023/01/07 08:15:10;;;;;;;;;9.25;9.25;;;;;9.10;73.04;100340.81;5032466;28;45490;-78
2023/01/07 08:17:36;;;;;;;;;10.25;10.25;;;;;9.11;72.78;100337.28;5040364;28;45208;-78
2023/01/07 08:20:03;;;;;;;;;12.75;12.75;;;;;9.12;73.02;100333.75;5036493;28;45223;-77
2023/01/07 08:22:28;;;;;;;;;9.75;9.75;;;;;9.12;72.75;100327.66;5018493;28;45441;-77
2023/01/07 08:24:54;;;;;;;;;10.00;10.00;;;;;9.12;72.42;100333.75;5030114;28;45372;-77
2023/01/07 08:27:19;;;;;;;;;11.25;11.25;;;;;9.07;72.77;100325.19;5024599;28;46381;-79
2023/01/07 08:29:45;;;;;;;;;11.00;9.50;;;;;9.09;72.85;100330.41;5036865;28;45310;-81
2023/01/07 08:32:11;;;;;;;;;10.75;10.75;;;;;9.20;72.41;100336.94;5031537;28;45511;-78
2023/01/07 08:34:36;;;;;;;;;9.00;9.00;;;;;9.21;72.24;100332.56;5017021;28;45208;-78
2023/01/07 08:37:01;;;;;;;;;7.25;7.25;;;;;9.16;72.38;100314.34;5019041;28;66819;-77
2023/01/07 08:39:27;;;;;;;;;7.00;7.00;;;;;9.19;71.93;100313.38;5027515;28;45529;-80
2023/01/07 08:41:53;;;;;;;;;8.75;8.75;;;;;9.25;71.85;100318.38;5020510;28;45305;-77
2023/01/07 08:44:18;;;;;;;;;9.50;9.50;;;;;9.19;72.20;100297.63;5020372;28;45422;-73
2023/01/07 08:46:43;;;;;;;;;10.25;10.25;;;;;9.26;71.82;100299.09;5034073;28;45951;-77
2023/01/07 08:49:10;;;;;;;;;7.25;7.25;;;;;9.28;72.17;100291.16;5031866;28;45479;-73
2023/01/07 08:51:36;;;;;;;;;9.50;9.50;;;;;9.34;71.69;100304.03;5015046;28;45400;-73
2023/01/07 08:54:01;;;;;;;;;7.00;7.00;;;;;9.28;71.52;100275.41;5025772;28;45401;-77
2023/01/07 08:56:27;;;;;;;;;7.25;7.25;;;;;9.35;71.74;100290.88;5035774;28;46175;-80
2023/01/07 08:58:52;;;;;;;;;8.75;8.75;;;;;9.37;72.11;100280.28;5034699;28;50840;-81
2023/01/07 09:01:17;;;;;;;;;15.25;15.25;;;;;9.43;71.75;100271.31;5040232;28;45190;-80
2023/01/07 09:03:42;;;;;;;;;10.25;10.25;;;;;9.40;71.52;100261.78;5041200;28;45502;-78
2023/01/07 09:06:08;;;;;;;;;7.00;7.00;;;;;9.49;71.08;100257.94;5038656;28;47423;-78
2023/01/07 09:08:33;;;;;;;;;10.75;10.75;;;;;9.57;71.47;100260.28;5035330;28;45487;-71
2023/01/07 09:10:59;;;;;;;;;9.50;9.50;;;;;9.55;71.05;100246.34;5037674;28;45219;-77
2023/01/07 09:13:24;;;;;;;;;8.50;8.50;;;;;9.59;71.66;100251.41;5038151;28;45288;-77
2023/01/07 09:15:49;;;;;;;;;8.25;8.25;;;;;9.53;71.34;100243.78;5037338;28;46001;-73
2023/01/07 09:18:15;;;;;;;;;8.00;8.00;;;;;9.61;71.00;100228.56;5021657;28;45243;-77
2023/01/07 09:20:40;;;;;;;;;10.25;10.25;;;;;9.67;70.78;100242.34;5034720;28;45230;-73
2023/01/07 09:23:06;;;;;;;;;8.75;8.75;;;;;9.66;71.17;100231.00;5018386;28;45392;-75
2023/01/07 09:25:32;;;;;;;;;8.75;8.75;;;;;9.68;70.76;100225.66;5036353;28;46623;-78
2023/01/07 09:27:57;;;;;;;;;8.00;8.00;;;;;9.69;70.63;100212.50;5039111;28;57042;-76
2023/01/07 09:30:23;;;;;;;;;8.00;8.00;;;;;9.72;70.61;100217.59;5019912;28;45356;-81
2023/01/07 09:32:49;;;;;;;;;8.50;8.00;;;;;9.70;70.45;100208.94;5018319;28;45341;-77
2023/01/07 09:35:14;;;;;;;;;10.75;10.75;;;;;9.74;70.86;100204.41;5036225;28;46601;-72
2023/01/07 09:37:40;;;;;;;;;8.00;8.00;;;;;9.76;70.88;100203.41;5034943;28;45382;-75
2023/01/07 09:40:07;;;;;;;;;9.00;9.00;;;;;9.81;70.83;100199.75;5025169;28;45492;-72
2023/01/07 09:42:55;;;;;;;;;9.00;9.00;;;;;9.85;70.63;100188.19;5006337;28;45347;-74
2023/01/07 09:45:29;;;;;;;;;8.25;8.25;;;;;9.87;70.73;100188.97;5014901;28;47253;-73
2023/01/07 09:47:58;;;;;;;;;10.75;8.50;;;;;9.82;70.38;100170.78;5050690;28;45459;-75
2023/01/07 09:50:44;;;;;;;;;9.50;9.50;;;;;9.94;70.56;100183.38;5033952;28;45537;-75
2023/01/07 09:53:39;;;;;;;;;8.75;8.75;;;;;9.98;70.51;100175.34;5027362;28;45726;-72
2023/01/07 09:56:13;;;;;;;;;14.25;14.25;;;;;9.99;70.22;100174.44;5011811;28;47430;-69
2023/01/07 09:58:43;;;;;;;;;11.00;11.00;;;;;10.07;70.03;100181.06;5031797;28;45376;-73
2023/01/07 10:01:16;;;;;;;;;11.25;11.25;;;;;10.12;69.66;100177.38;5034682;28;45464;-73
2023/01/07 10:03:50;;;;;;;;;12.00;12.00;;;;;10.17;69.38;100170.13;5030496;28;45938;-72
2023/01/07 10:06:44;;;;;;;;;11.00;11.00;;;;;10.19;69.92;100177.03;5033366;28;45429;-73
2023/01/07 10:09:40;;;;;;;;;16.75;16.75;;;;;10.24;69.55;100176.81;5036528;28;45319;-78
2023/01/07 10:12:08;;;;;;;;;13.25;13.25;;;;;10.29;69.47;100174.84;5035425;28;45363;-75
2023/01/07 10:15:02;;;;;;;;;13.00;13.00;;;;;10.33;69.27;100178.19;5035501;28;45430;-71
2023/01/07 10:17:38;;;;;;;;;18.25;16.50;;;;;10.40;69.24;100177.00;5018134;28;47281;-71
2023/01/07 10:20:23;;;;;;;;;9.50;9.50;;;;;10.41;68.48;100183.97;5035780;28;45320;-70
2023/01/07 10:23:13;;;;;;;;;11.25;11.25;;;;;10.42;68.49;100167.28;5034027;28;45264;-70
2023/01/07 10:25:46;;;;;;;;;13.00;13.00;;;;;10.49;68.41;100170.47;5035311;28;45337;-68
2023/01/07 10:28:34;;;;;;;;;13.50;13.50;;;;;10.55;68.24;100158.81;5016445;28;48290;-69
2023/01/07 10:31:02;;;;;;;;;8.75;8.75;;;;;10.57;67.96;100155.16;5022126;28;45455;-73
2023/01/07 10:33:31;;;;;;;;;12.00;12.00;;;;;10.56;68.41;100134.22;5006802;28;45387;-75
2023/01/07 10:36:19;;;;;;;;;9.25;9.25;;;;;10.66;67.85;100152.13;5022455;28;45718;-72
2023/01/07 10:38:51;;;;;;;;;10.75;10.75;;;;;10.69;67.66;100145.03;5046906;28;46230;-69
2023/01/07 10:41:37;;;;;;;;;12.25;12.25;;;;;10.70;67.13;100128.31;5055986;28;45354;-70
2023/01/07 10:44:26;;;;;;;;;11.00;11.00;;;;;10.73;67.34;100133.44;5055694;28;45340;-70
2023/01/07 10:46:54;;;;;;;;;13.75;13.75;;;;;10.75;67.09;100121.88;5040409;28;45545;-73
2023/01/07 10:49:25;;;;;;;;;14.50;14.50;;;;;10.77;67.02;100122.66;5028257;28;46078;-73
2023/01/07 10:52:03;;;;;;;;;11.25;11.25;;;;;10.80;67.20;100113.78;5034888;28;45433;-71
2023/01/07 10:54:31;;;;;;;;;10.75;10.75;;;;;10.81;66.35;100115.50;5039757;28;45314;-72
2023/01/07 10:57:05;;;;;;;;;13.25;13.25;;;;;10.84;66.56;100115.34;5037216;28;45505;-75
2023/01/07 10:59:31;;;;;;;;;13.00;13.00;;;;;10.76;66.44;100085.94;5054582;28;46135;-74
2023/01/07 11:01:58;;;;;;;;;10.75;10.75;;;;;10.85;66.08;100103.88;5030524;28;45948;-75
2023/01/07 11:04:25;;;;;;;;;11.00;11.00;;;;;10.89;66.61;100104.56;5036093;28;46267;-74
2023/01/07 11:07:06;;;;;;;;;10.50;10.50;;;;;10.87;66.11;100075.72;5018566;28;45650;-65
2023/01/07 11:09:35;;;;;;;;;10.50;10.50;;;;;10.88;65.71;100053.75;5045463;28;45528;-69
2023/01/07 11:12:19;;;;;;;;;11.00;11.00;;;;;10.98;65.67;100076.97;5016907;28;45251;-68
2023/01/07 11:14:46;;;;;;;;;12.25;12.25;;;;;11.00;65.53;100070.69;5034566;28;45457;-68
2023/01/07 11:17:31;;;;;;;;;10.25;10.25;;;;;10.99;65.95;100063.72;5034701;28;45478;-73
2023/01/07 11:19:56;;;;;;;;;10.25;10.25;;;;;11.00;65.45;100054.06;5034541;28;46136;-73
2023/01/07 11:22:24;;;;;;;;;11.50;11.50;;;;;10.80;65.32;100017.28;5034276;28;45311;-72
2023/01/07 11:24:50;;;;;;;;;11.00;11.00;;;;;11.06;65.75;100054.56;5042225;28;45901;-71
2023/01/07 11:27:17;;;;;;;;;8.00;8.00;;;;;11.08;65.44;100044.81;5048767;28;45720;-71
2023/01/07 11:30:01;;;;;;;;;9.50;9.50;;;;;11.07;65.28;100042.28;5016450;28;47315;-69
2023/01/07 11:32:30;;;;;;;;;14.00;14.00;;;;;11.13;65.27;100041.09;5041661;28;45393;-71
2023/01/07 11:35:00;;;;;;;;;6.00;6.00;;;;;11.16;65.14;100035.72;5024355;28;45516;-76
2023/01/07 11:37:37;;;;;;;;;7.50;7.50;;;;;11.22;65.24;100016.97;5020654;28;45530;-71